Time;durP1;ratioP1;P1;durP2;ratioP2;P2;SDS_P1;SDS_P2;PMS_P1;PMS_P2;Temp;Humidity;BMP_temperature;BMP_pressure;BME280_temperature;BME280_humidity;BME280_pressure;Samples;Min_cycle;Max_cycle;Signal;HPM_P1;HPM_P2
2023/05/11 00:01:27;;;;;;;13.23;8.20;;;;;;;10.65;100.00;100686.13;5031733;28;20036;-85
2023/05/11 00:03:54;;;;;;;12.13;7.63;;;;;;;10.58;100.00;100689.78;5015854;28;20124;-86
2023/05/11 00:06:22;;;;;;;10.95;8.48;;;;;;;10.62;100.00;100698.53;5031678;28;20222;-85
2023/05/11 00:08:48;;;;;;;10.65;7.90;;;;;;;10.53;100.00;100689.00;5002064;28;20046;-86
2023/05/11 00:11:17;;;;;;;9.57;8.57;;;;;;;10.49;100.00;100692.59;5036381;28;20052;-86
2023/05/11 00:13:44;;;;;;;9.27;7.90;;;;;;;10.42;100.00;100690.97;5006665;28;20041;-86
2023/05/11 00:16:11;;;;;;;10.00;7.53;;;;;;;10.44;100.00;100689.19;4997195;28;20092;-85
2023/05/11 00:18:38;;;;;;;10.60;8.50;;;;;;;10.31;100.00;100687.69;5031561;28;20032;-85
2023/05/11 00:21:05;;;;;;;10.23;8.20;;;;;;;10.27;100.00;100681.59;5036874;28;20364;-85
2023/05/11 00:23:31;;;;;;;11.17;8.30;;;;;;;10.19;100.00;100698.44;5022351;28;20029;-85
2023/05/11 00:25:58;;;;;;;10.90;8.00;;;;;;;10.24;100.00;100689.56;5019470;28;20100;-85
2023/05/11 00:28:25;;;;;;;9.53;8.33;;;;;;;10.20;100.00;100698.41;5028467;28;20514;-85
2023/05/11 00:30:56;;;;;;;9.40;7.97;;;;;;;10.21;100.00;100688.72;5027484;28;20388;-86
2023/05/11 00:33:23;;;;;;;10.33;8.70;;;;;;;10.09;100.00;100687.19;5037243;28;20045;-86
2023/05/11 00:35:50;;;;;;;10.53;8.03;;;;;;;10.16;100.00;100692.31;5026314;28;20038;-85
2023/05/11 00:38:17;;;;;;;10.50;8.63;;;;;;;9.99;100.00;100693.50;5026857;28;20451;-86
2023/05/11 00:40:44;;;;;;;9.90;8.67;;;;;;;9.97;100.00;100698.81;4991520;28;20046;-85
2023/05/11 00:43:11;;;;;;;11.30;8.63;;;;;;;9.91;100.00;100698.03;5024529;28;20038;-85
2023/05/11 00:45:38;;;;;;;10.33;9.03;;;;;;;9.92;100.00;100698.03;5035792;28;20490;-86
2023/05/11 00:48:05;;;;;;;12.17;7.80;;;;;;;9.99;100.00;100702.28;4995679;28;20053;-86
2023/05/11 00:50:33;;;;;;;9.77;8.03;;;;;;;9.94;100.00;100704.16;5020357;28;20041;-85
2023/05/11 00:53:00;;;;;;;10.43;8.18;;;;;;;9.91;100.00;100706.81;5019927;28;20087;-86
2023/05/11 00:55:27;;;;;;;9.97;8.53;;;;;;;10.03;100.00;100705.75;5001263;28;20037;-85
2023/05/11 00:57:54;;;;;;;12.13;8.77;;;;;;;10.04;100.00;100696.94;5028999;28;20045;-86
2023/05/11 01:00:21;;;;;;;9.70;8.03;;;;;;;10.16;100.00;100697.56;5034131;28;20052;-86
2023/05/11 01:02:47;;;;;;;11.23;8.63;;;;;;;10.13;100.00;100700.28;5010888;28;20490;-86
2023/05/11 01:05:15;;;;;;;9.33;8.00;;;;;;;10.14;100.00;100701.16;5004566;28;20049;-86
2023/05/11 01:08:04;;;;;;;11.13;9.20;;;;;;;10.13;100.00;100710.84;5007072;28;20049;-85
2023/05/11 01:10:52;;;;;;;11.07;8.57;;;;;;;9.98;100.00;100712.88;5038060;28;20171;-85
2023/05/11 01:13:42;;;;;;;11.27;9.30;;;;;;;10.12;100.00;100708.25;5010285;28;20044;-87
2023/05/11 01:16:16;;;;;;;11.47;8.60;;;;;;;10.04;100.00;100708.38;5011108;28;20041;-86
2023/05/11 01:18:45;;;;;;;;;;;;;;;10.07;100.00;100710.06;5007339;28;20648;-85
2023/05/11 01:21:14;;;;;;;14.97;8.87;;;;;;;10.00;100.00;100708.44;5016227;28;19921;-86
2023/05/11 01:23:59;;;;;;;10.27;8.60;;;;;;;10.06;100.00;100711.84;5009934;28;20030;-84
2023/05/11 01:26:57;;;;;;;9.47;8.40;;;;;;;9.99;100.00;100715.47;5014288;28;20137;-83
2023/05/11 01:29:46;;;;;;;10.40;8.30;;;;;;;10.02;100.00;100711.94;5019293;28;20099;-83
2023/05/11 01:32:25;;;;;;;11.03;8.70;;;;;;;10.11;100.00;100717.06;5015505;28;20100;-83
2023/05/11 01:35:00;;;;;;;12.40;8.73;;;;;;;10.12;100.00;100703.81;5031529;28;20033;-83
2023/05/11 01:37:30;;;;;;;9.43;8.07;;;;;;;10.02;100.00;100707.53;5012387;28;20033;-83
2023/05/11 01:40:00;;;;;;;13.20;9.55;;;;;;;10.05;100.00;100699.56;5031739;28;20067;-83
2023/05/11 01:42:35;;;;;;;9.73;8.50;;;;;;;10.09;100.00;100713.59;4985123;28;20137;-83
2023/05/11 01:45:03;;;;;;;10.57;9.47;;;;;;;9.98;100.00;100713.75;4999688;28;20140;-82
2023/05/11 01:47:30;;;;;;;10.97;8.07;;;;;;;9.95;100.00;100719.09;5002965;28;20041;-83
2023/05/11 01:49:59;;;;;;;11.52;9.25;;;;;;;9.88;100.00;100726.22;5028988;28;20041;-82
2023/05/11 01:52:26;;;;;;;11.13;8.60;;;;;;;10.02;100.00;100718.09;5020802;28;20045;-83
2023/05/11 01:54:54;;;;;;;11.63;8.73;;;;;;;9.84;100.00;100719.28;5029680;28;20041;-83
2023/05/11 01:57:21;;;;;;;11.55;8.55;;;;;;;9.79;100.00;100725.50;5013419;28;20056;-83
2023/05/11 01:59:49;;;;;;;11.10;8.93;;;;;;;9.88;100.00;100728.00;5016880;28;20053;-84
2023/05/11 02:02:17;;;;;;;9.10;8.17;;;;;;;9.79;100.00;100725.50;5043541;28;20068;-83
2023/05/11 02:04:44;;;;;;;9.60;8.23;;;;;;;9.70;100.00;100736.22;5031477;28;20105;-84
2023/05/11 02:07:12;;;;;;;9.97;8.93;;;;;;;9.82;100.00;100734.25;4998516;28;20046;-84
2023/05/11 02:09:39;;;;;;;10.87;8.80;;;;;;;9.75;100.00;100743.19;5025509;28;20045;-84
2023/05/11 02:12:08;;;;;;;9.90;8.77;;;;;;;9.76;100.00;100736.13;5001863;28;20041;-83
2023/05/11 02:14:35;;;;;;;9.53;8.53;;;;;;;9.65;100.00;100744.19;5014288;28;20033;-83
2023/05/11 02:17:03;;;;;;;10.37;8.50;;;;;;;9.71;100.00;100743.22;5000120;28;20045;-84
2023/05/11 02:19:33;;;;;;;9.27;7.93;;;;;;;9.81;100.00;100743.06;5021911;28;20041;-83
2023/05/11 02:22:00;;;;;;;10.60;8.17;;;;;;;9.73;100.00;100746.72;5013215;28;20044;-83
2023/05/11 02:24:27;;;;;;;11.40;8.37;;;;;;;9.62;100.00;100753.94;5000503;28;20425;-84
2023/05/11 02:26:55;;;;;;;10.60;8.77;;;;;;;9.64;100.00;100746.84;5037668;28;20063;-82
2023/05/11 02:29:22;;;;;;;11.13;9.43;;;;;;;9.66;100.00;100751.19;5004880;28;20044;-84
2023/05/11 02:31:54;;;;;;;11.43;8.40;;;;;;;9.59;100.00;100754.84;5026024;28;20520;-83
2023/05/11 02:34:24;;;;;;;11.60;9.13;;;;;;;9.45;100.00;100760.31;5007863;28;20487;-83
2023/05/11 02:36:53;;;;;;;10.07;8.10;;;;;;;9.69;100.00;100761.72;5023863;28;20057;-83
2023/05/11 02:39:23;;;;;;;9.97;7.80;;;;;;;9.58;100.00;100764.53;5008696;28;20051;-83
2023/05/11 02:41:55;;;;;;;9.63;8.03;;;;;;;9.64;100.00;100763.56;5004927;28;20041;-83
2023/05/11 02:44:23;;;;;;;10.10;8.03;;;;;;;9.50;100.00;100768.16;5027332;28;20041;-83
2023/05/11 02:46:51;;;;;;;10.47;8.53;;;;;;;9.53;100.00;100760.22;5004117;28;20464;-84
2023/05/11 02:49:20;;;;;;;10.27;8.47;;;;;;;9.50;100.00;100760.22;5024528;28;20043;-84
2023/05/11 02:51:47;;;;;;;10.27;8.80;;;;;;;9.34;100.00;100756.09;5007168;28;20530;-84
2023/05/11 02:54:14;;;;;;;8.90;7.67;;;;;;;9.30;100.00;100758.75;5017529;28;20052;-84
2023/05/11 02:56:41;;;;;;;10.67;8.77;;;;;;;9.32;100.00;100756.97;5009537;28;20091;-83
2023/05/11 02:59:09;;;;;;;10.40;8.20;;;;;;;9.27;100.00;100768.50;5024476;28;20041;-84
2023/05/11 03:01:37;;;;;;;10.17;8.10;;;;;;;9.09;100.00;100766.09;5017952;28;20090;-84
2023/05/11 03:04:04;;;;;;;14.13;9.00;;;;;;;9.18;100.00;100765.97;5015454;28;20087;-83
2023/05/11 03:06:32;;;;;;;14.17;9.20;;;;;;;9.16;100.00;100765.09;5018844;28;20510;-83
2023/05/11 03:09:00;;;;;;;10.97;8.57;;;;;;;9.10;100.00;100763.44;5025913;28;20048;-83
2023/05/11 03:11:27;;;;;;;9.63;8.13;;;;;;;9.10;100.00;100765.22;5004513;28;20056;-84
2023/05/11 03:13:54;;;;;;;9.73;8.00;;;;;;;9.05;100.00;100769.66;5037580;28;20406;-83
2023/05/11 03:16:21;;;;;;;11.97;9.50;;;;;;;9.05;100.00;100770.53;5006387;28;20439;-85
2023/05/11 03:18:48;;;;;;;10.37;8.53;;;;;;;9.14;100.00;100773.03;5005747;28;20047;-83
2023/05/11 03:21:17;;;;;;;9.47;8.23;;;;;;;9.15;100.00;100773.91;5015726;28;20141;-83
2023/05/11 03:23:44;;;;;;;11.13;8.43;;;;;;;8.99;100.00;100779.34;5009483;28;20041;-83
2023/05/11 03:26:12;;;;;;;10.40;8.63;;;;;;;9.05;100.00;100777.56;5008882;28;20045;-83
2023/05/11 03:28:39;;;;;;;10.40;8.60;;;;;;;8.92;100.00;100779.47;5009565;28;20041;-84
2023/05/11 03:31:06;;;;;;;10.17;8.67;;;;;;;8.92;100.00;100769.81;5008796;28;20044;-83
2023/05/11 03:33:33;;;;;;;10.13;8.37;;;;;;;8.89;100.00;100772.47;5010695;28;20508;-84
2023/05/11 03:36:00;;;;;;;9.03;8.07;;;;;;;8.86;100.00;100779.53;4997769;28;20034;-83
2023/05/11 03:38:28;;;;;;;8.30;7.40;;;;;;;8.91;100.00;100772.44;5014129;28;20562;-85
2023/05/11 03:40:55;;;;;;;9.97;8.17;;;;;;;8.88;100.00;100773.34;5003992;28;20141;-84
2023/05/11 03:43:21;;;;;;;8.70;7.80;;;;;;;9.03;100.00;100777.56;5041591;28;20063;-84
2023/05/11 03:45:50;;;;;;;9.07;7.87;;;;;;;8.92;100.00;100776.84;5018765;28;20502;-85
2023/05/11 03:48:17;;;;;;;9.17;7.53;;;;;;;8.86;100.00;100779.53;5006717;28;20044;-84
2023/05/11 03:50:44;;;;;;;9.43;7.93;;;;;;;8.77;100.00;100777.88;5043043;28;20049;-84
2023/05/11 03:53:11;;;;;;;9.90;8.27;;;;;;;8.85;100.00;100775.16;5017068;28;20068;-83
2023/05/11 03:55:38;;;;;;;9.00;8.03;;;;;;;8.75;100.00;100774.41;5000044;28;20049;-84
2023/05/11 03:58:09;;;;;;;9.83;8.03;;;;;;;8.85;100.00;100769.91;5035826;28;20044;-83
2023/05/11 04:00:42;;;;;;;10.67;8.07;;;;;;;8.82;100.00;100783.09;5041221;28;20037;-85
2023/05/11 04:03:08;;;;;;;10.03;8.17;;;;;;;8.83;100.00;100780.47;4996779;28;20091;-85
2023/05/11 04:05:35;;;;;;;10.20;7.83;;;;;;;8.88;100.00;100777.75;5021301;28;20071;-84
2023/05/11 04:08:03;;;;;;;78.60;15.80;;;;;;;8.73;100.00;100777.03;5006121;28;20057;-83
2023/05/11 04:10:29;;;;;;;46.87;13.27;;;;;;;8.87;100.00;100768.97;5004103;28;20063;-84
2023/05/11 04:12:56;;;;;;;34.07;11.70;;;;;;;8.79;100.00;100770.84;5030015;28;20033;-84
2023/05/11 04:15:23;;;;;;;19.17;9.93;;;;;;;8.85;100.00;100772.53;5035415;28;20048;-85
2023/05/11 04:17:49;;;;;;;17.47;9.60;;;;;;;8.88;100.00;100780.41;5035999;28;20487;-84
2023/05/11 04:20:16;;;;;;;12.57;8.43;;;;;;;8.86;100.00;100772.50;5019691;28;20048;-85
2023/05/11 04:22:43;;;;;;;10.30;8.37;;;;;;;8.90;100.00;100775.97;5028587;28;20760;-84
2023/05/11 04:25:10;;;;;;;9.60;7.27;;;;;;;9.08;100.00;100773.13;5013080;28;20077;-83
2023/05/11 04:27:37;;;;;;;7.97;6.97;;;;;;;9.20;100.00;100777.38;4998401;28;20431;-84
2023/05/11 04:30:05;;;;;;;10.30;7.40;;;;;;;9.19;100.00;100780.91;5013475;28;20052;-83
2023/05/11 04:32:31;;;;;;;8.30;7.43;;;;;;;9.21;100.00;100777.34;5008173;28;20037;-85
2023/05/11 04:34:58;;;;;;;8.77;7.67;;;;;;;9.14;100.00;100777.44;5015770;28;20124;-84
2023/05/11 04:37:25;;;;;;;9.47;7.77;;;;;;;9.22;100.00;100779.09;5000673;28;20071;-83
2023/05/11 04:39:51;;;;;;;11.23;8.13;;;;;;;9.20;100.00;100774.72;5023541;28;20041;-83
2023/05/11 04:42:18;;;;;;;10.70;7.40;;;;;;;9.11;100.00;100781.00;5007649;28;20567;-84
2023/05/11 04:44:45;;;;;;;11.03;7.17;;;;;;;9.24;100.00;100779.94;4996765;28;20037;-85
2023/05/11 04:47:11;;;;;;;10.57;7.93;;;;;;;9.23;100.00;100788.72;5005150;28;20102;-85
2023/05/11 04:49:38;;;;;;;9.97;8.00;;;;;;;9.39;100.00;100788.53;5022592;28;20041;-83
2023/05/11 04:52:05;;;;;;;8.33;7.13;;;;;;;9.37;100.00;100791.19;5005963;28;20576;-85
2023/05/11 04:54:32;;;;;;;9.63;7.70;;;;;;;9.39;100.00;100791.16;5031758;28;20770;-85
2023/05/11 04:56:58;;;;;;;8.57;7.67;;;;;;;9.65;100.00;100786.41;5023319;28;20086;-84
2023/05/11 04:59:25;;;;;;;10.67;8.30;;;;;;;9.84;100.00;100792.28;5020956;28;20036;-84
2023/05/11 05:01:51;;;;;;;8.50;7.40;;;;;;;10.02;100.00;100789.34;5004073;28;20045;-85
2023/05/11 05:04:18;;;;;;;7.97;7.07;;;;;;;10.05;100.00;100797.22;5019403;28;20144;-84
2023/05/11 05:06:45;;;;;;;7.33;6.57;;;;;;;10.10;100.00;100791.88;5014700;28;20073;-85
2023/05/11 05:09:12;;;;;;;10.27;7.20;;;;;;;10.14;100.00;100796.19;5031393;28;20052;-85
2023/05/11 05:11:38;;;;;;;8.53;7.37;;;;;;;10.17;100.00;100801.41;5007893;28;20036;-84
2023/05/11 05:14:05;;;;;;;9.03;7.77;;;;;;;10.30;100.00;100803.00;5014085;28;20037;-84
2023/05/11 05:16:32;;;;;;;11.03;6.67;;;;;;;10.51;100.00;100798.22;5029716;28;20047;-85
2023/05/11 05:18:58;;;;;;;9.23;7.18;;;;;;;10.77;100.00;100803.06;5012098;28;20076;-85
2023/05/11 05:21:25;;;;;;;8.65;6.75;;;;;;;11.00;100.00;100798.16;4996598;28;20728;-85
2023/05/11 05:23:52;;;;;;;7.45;6.05;;;;;;;11.23;100.00;100801.22;5011390;28;20513;-86
2023/05/11 05:26:19;;;;;;;6.93;5.82;;;;;;;11.32;100.00;100801.94;4998833;28;20041;-85
2023/05/11 05:28:45;;;;;;;8.45;6.40;;;;;;;11.39;100.00;100804.41;5004833;28;20060;-86
2023/05/11 05:31:12;;;;;;;8.70;6.30;;;;;;;11.45;100.00;100803.44;5019606;28;20046;-85
2023/05/11 05:33:38;;;;;;;7.22;6.15;;;;;;;11.84;100.00;100813.13;5017639;28;20059;-85
2023/05/11 05:36:05;;;;;;;6.13;5.53;;;;;;;12.14;100.00;100805.38;5003220;28;20057;-86
2023/05/11 05:38:32;;;;;;;6.63;5.95;;;;;;;12.53;97.16;100803.50;5017911;28;20041;-85
2023/05/11 05:40:59;;;;;;;6.65;5.38;;;;;;;12.73;98.77;100807.41;5022633;28;20034;-86
2023/05/11 05:43:26;;;;;;;8.80;5.70;;;;;;;12.84;100.00;100811.47;5008987;28;20037;-85
2023/05/11 05:45:53;;;;;;;6.18;5.57;;;;;;;12.82;100.00;100815.97;5011599;28;20033;-84
2023/05/11 05:48:19;;;;;;;7.80;5.45;;;;;;;12.92;96.05;100814.78;5023082;28;20530;-85
2023/05/11 05:50:46;;;;;;;8.13;6.05;;;;;;;13.12;97.86;100808.09;5005141;28;20049;-86
2023/05/11 05:53:13;;;;;;;7.15;5.60;;;;;;;13.46;91.79;100816.81;5008052;28;20037;-85
2023/05/11 05:55:39;;;;;;;5.88;4.80;;;;;;;13.71;89.79;100821.41;5016263;28;20041;-88
2023/05/11 05:58:06;;;;;;;7.70;5.28;;;;;;;13.84;91.42;100819.22;5014105;28;20041;-88
2023/05/11 06:00:34;;;;;;;5.35;4.85;;;;;;;14.16;86.18;100820.84;5025138;28;20068;-86
2023/05/11 06:03:01;;;;;;;5.75;4.90;;;;;;;15.16;75.72;100825.34;5042400;28;20589;-85
2023/05/11 06:05:28;;;;;;;5.32;4.68;;;;;;;16.33;69.57;100825.22;5007327;28;20041;-87
2023/05/11 06:07:54;;;;;;;6.22;4.78;;;;;;;17.01;61.68;100828.56;5038785;28;20041;-86
2023/05/11 06:10:36;;;;;;;8.20;4.93;;;;;;;18.33;59.33;100828.59;5019059;28;20041;-87
2023/05/11 06:13:03;;;;;;;7.38;4.20;;;;;;;18.69;57.71;100835.72;5019693;28;20044;-86
2023/05/11 06:15:30;;;;;;;5.05;4.43;;;;;;;18.40;55.38;100830.00;5032629;28;20030;-85
2023/05/11 06:17:57;;;;;;;4.97;4.50;;;;;;;18.41;57.24;100837.06;5033375;28;20040;-87
2023/05/11 06:20:23;;;;;;;5.13;4.45;;;;;;;18.55;59.00;100834.56;5008880;28;20084;-85
2023/05/11 06:22:50;;;;;;;5.75;4.50;;;;;;;18.86;61.39;100832.19;5000837;28;20045;-85
2023/05/11 06:25:17;;;;;;;6.75;4.68;;;;;;;18.78;58.97;100830.75;5018007;28;20069;-86
2023/05/11 06:27:43;;;;;;;4.60;4.07;;;;;;;19.13;57.58;100833.41;5003958;28;20041;-86
2023/05/11 06:30:10;;;;;;;4.88;4.20;;;;;;;19.00;56.06;100832.31;5023568;28;20045;-86
2023/05/11 06:32:37;;;;;;;5.93;4.03;;;;;;;18.96;55.41;100828.94;5031306;28;20044;-85
2023/05/11 06:35:04;;;;;;;5.93;4.32;;;;;;;19.11;54.78;100828.13;5047537;28;20040;-85
2023/05/11 06:37:31;;;;;;;5.45;4.25;;;;;;;19.07;53.53;100833.72;5044596;28;20056;-86
2023/05/11 06:39:58;;;;;;;6.05;4.18;;;;;;;19.20;53.22;100828.59;5025466;28;20112;-85
2023/05/11 06:42:24;;;;;;;12.80;4.93;;;;;;;18.96;54.03;100834.28;5015080;28;20257;-85
2023/05/11 06:44:51;;;;;;;6.13;4.00;;;;;;;18.88;52.18;100824.94;5008570;28;20044;-85
2023/05/11 06:47:18;;;;;;;5.78;4.07;;;;;;;18.50;52.53;100828.63;5023046;28;20042;-85
2023/05/11 06:49:45;;;;;;;5.18;4.32;;;;;;;18.67;53.66;100832.28;5036130;28;20091;-85
2023/05/11 06:52:11;;;;;;;7.18;4.68;;;;;;;18.75;53.48;100824.69;5057312;28;20042;-84
2023/05/11 06:54:38;;;;;;;5.32;3.83;;;;;;;18.67;53.26;100826.91;5018172;28;20052;-86
2023/05/11 06:57:05;;;;;;;6.55;4.20;;;;;;;18.70;53.06;100827.63;5018114;28;20108;-85
2023/05/11 06:59:32;;;;;;;4.68;3.83;;;;;;;18.95;53.14;100826.34;5036867;28;20065;-86
2023/05/11 07:01:58;;;;;;;8.05;3.80;;;;;;;19.05;54.26;100827.59;5043458;28;20041;-87
2023/05/11 07:04:25;;;;;;;5.57;4.15;;;;;;;19.45;51.08;100822.78;5034888;28;20053;-88
2023/05/11 07:06:52;;;;;;;5.85;3.95;;;;;;;19.71;50.81;100832.09;5024484;28;20041;-86
2023/05/11 07:09:18;;;;;;;6.38;4.13;;;;;;;20.03;48.81;100831.13;5018011;28;20051;-86
2023/05/11 07:11:45;;;;;;;4.75;3.25;;;;;;;20.33;48.71;100824.94;5023029;28;20053;-86
2023/05/11 07:14:12;;;;;;;4.93;3.78;;;;;;;20.64;46.24;100838.31;5014975;28;20045;-85
2023/05/11 07:16:39;;;;;;;5.93;3.90;;;;;;;20.87;47.01;100830.72;5028902;28;20037;-87
2023/05/11 07:19:08;;;;;;;4.20;3.22;;;;;;;20.89;45.21;100826.13;5018599;28;20094;-85
2023/05/11 07:21:35;;;;;;;16.92;3.92;;;;;;;20.95;44.26;100831.13;5008748;28;20325;-86
2023/05/11 07:24:02;;;;;;;5.22;3.30;;;;;;;20.42;44.76;100836.00;5012316;28;20045;-84
2023/05/11 07:26:29;;;;;;;12.32;4.75;;;;;;;20.78;44.55;100832.13;5025868;28;20075;-85
2023/05/11 07:28:56;;;;;;;44.45;7.65;;;;;;;21.06;43.77;100831.31;5027404;28;20552;-85
2023/05/11 07:31:22;;;;;;;4.45;3.75;;;;;;;20.70;42.94;100834.41;5022264;28;20046;-85
2023/05/11 07:33:49;;;;;;;4.30;3.70;;;;;;;20.87;43.60;100828.03;5031016;28;20038;-87
2023/05/11 07:36:17;;;;;;;4.65;3.53;;;;;;;21.29;45.84;100844.22;5060255;28;20048;-85
2023/05/11 07:38:43;;;;;;;3.80;3.33;;;;;;;21.26;42.79;100833.63;5033380;28;20049;-85
2023/05/11 07:41:10;;;;;;;5.35;3.40;;;;;;;21.31;42.08;100845.00;5037679;28;20048;-87
2023/05/11 07:43:38;;;;;;;3.88;3.22;;;;;;;21.57;42.72;100847.88;5020455;28;20505;-85
2023/05/11 07:46:05;;;;;;;4.45;2.97;;;;;;;21.47;41.86;100835.97;5022718;28;20052;-85
2023/05/11 07:48:32;;;;;;;11.68;4.30;;;;;;;21.66;42.35;100841.91;5000500;28;20079;-83
2023/05/11 07:50:59;;;;;;;5.55;3.40;;;;;;;21.11;41.98;100834.59;5007103;28;20097;-86
2023/05/11 07:53:26;;;;;;;7.40;4.72;;;;;;;21.61;44.80;100844.03;5047704;28;20056;-86
2023/05/11 07:55:53;;;;;;;14.25;4.63;;;;;;;21.79;42.13;100833.94;5002688;28;20037;-85
2023/05/11 07:58:19;;;;;;;14.88;4.95;;;;;;;21.44;41.67;100833.47;5025760;28;20046;-86
2023/05/11 08:00:46;;;;;;;3.92;3.40;;;;;;;21.77;43.36;100838.53;5027367;28;20045;-88
2023/05/11 08:03:14;;;;;;;5.80;3.28;;;;;;;21.88;41.39;100839.56;5034123;28;20045;-85
2023/05/11 08:05:41;;;;;;;3.53;3.10;;;;;;;22.03;41.94;100836.84;5038254;28;20497;-85
2023/05/11 08:08:08;;;;;;;3.83;3.45;;;;;;;21.64;40.38;100835.78;5010796;28;20053;-85
2023/05/11 08:10:35;;;;;;;4.60;3.63;;;;;;;22.33;40.68;100837.53;5050300;28;20037;-88
2023/05/11 08:13:01;;;;;;;4.95;2.95;;;;;;;22.55;40.43;100831.59;5040558;28;20048;-86
2023/05/11 08:15:28;;;;;;;13.30;4.57;;;;;;;22.08;39.54;100830.22;5015798;28;20036;-86
2023/05/11 08:17:55;;;;;;;7.93;4.05;;;;;;;21.45;41.23;100841.47;5019656;28;20507;-85
2023/05/11 08:20:22;;;;;;;3.85;3.42;;;;;;;21.85;40.55;100836.22;5034167;28;20751;-85
2023/05/11 08:22:49;;;;;;;4.72;2.95;;;;;;;21.58;40.32;100839.69;5023855;28;20066;-85
2023/05/11 08:25:16;;;;;;;3.80;2.80;;;;;;;22.17;42.05;100836.84;5025582;28;20056;-86
2023/05/11 08:27:43;;;;;;;4.90;3.45;;;;;;;21.95;40.95;100840.06;5013497;28;20055;-86
2023/05/11 08:30:10;;;;;;;8.32;3.53;;;;;;;21.92;39.64;100833.03;5025616;28;20506;-85
2023/05/11 08:32:38;;;;;;;4.65;3.20;;;;;;;21.86;39.98;100837.94;5027034;28;20052;-87
2023/05/11 08:35:24;;;;;;;4.75;2.80;;;;;;;22.31;39.77;100847.56;5018742;28;20033;-86
2023/05/11 08:37:50;;;;;;;3.47;2.90;;;;;;;22.50;39.32;100835.56;5013450;28;20041;-88
2023/05/11 08:40:19;;;;;;;3.83;3.15;;;;;;;22.87;39.46;100842.91;5010615;28;20141;-87
2023/05/11 08:42:45;;;;;;;5.80;3.00;;;;;;;22.24;38.54;100840.00;5031958;28;21827;-85
2023/05/11 08:45:12;;;;;;;3.42;3.13;;;;;;;22.45;39.79;100846.66;5041901;28;20041;-85
2023/05/11 08:47:39;;;;;;;6.40;3.15;;;;;;;22.62;39.01;100842.81;5014823;28;20040;-86
2023/05/11 08:50:06;;;;;;;5.05;3.45;;;;;;;22.23;38.76;100833.75;5005555;28;20045;-85
2023/05/11 08:52:33;;;;;;;6.07;3.33;;;;;;;22.66;39.13;100844.31;5043970;28;20453;-84
2023/05/11 08:55:00;;;;;;;4.32;3.05;;;;;;;22.94;38.80;100838.78;5048960;28;20051;-87
2023/05/11 08:57:30;;;;;;;4.30;2.80;;;;;;;23.23;38.60;100828.69;5030055;28;20091;-86
2023/05/11 08:59:59;;;;;;;4.20;2.80;;;;;;;23.06;37.95;100829.00;5024755;28;20029;-87
2023/05/11 09:02:26;;;;;;;5.45;2.63;;;;;;;22.57;36.48;100834.19;5032347;28;20052;-87
2023/05/11 09:04:53;;;;;;;5.05;2.72;;;;;;;23.17;36.76;100829.09;5007430;28;20041;-87
2023/05/11 09:07:20;;;;;;;3.53;2.90;;;;;;;23.17;37.82;100831.81;5007790;28;20515;-86
2023/05/11 09:09:47;;;;;;;3.67;3.20;;;;;;;23.52;37.34;100825.72;5027194;28;20048;-86
2023/05/11 09:12:15;;;;;;;3.97;3.03;;;;;;;22.60;35.78;100831.25;4998505;28;20107;-86
2023/05/11 09:14:42;;;;;;;4.10;3.00;;;;;;;22.47;35.89;100828.56;5010574;28;20040;-86
2023/05/11 09:17:10;;;;;;;5.57;3.10;;;;;;;23.03;38.22;100818.44;5007887;28;20052;-86
2023/05/11 09:19:56;;;;;;;2.50;2.30;;;;;;;23.33;36.13;100817.25;4991241;28;20713;-87
2023/05/11 09:22:23;;;;;;;3.08;2.60;;;;;;;23.35;35.77;100835.03;5025086;28;20045;-86
2023/05/11 09:24:49;;;;;;;7.93;3.35;;;;;;;23.32;35.29;100827.16;5015100;28;20056;-86
2023/05/11 09:27:16;;;;;;;4.20;2.60;;;;;;;23.89;36.46;100831.22;5007233;28;20044;-85
2023/05/11 09:29:47;;;;;;;3.88;2.97;;;;;;;23.61;35.99;100827.81;5032786;28;20039;-87
2023/05/11 09:32:17;;;;;;;3.58;2.50;;;;;;;22.82;34.20;100834.22;4999040;28;20076;-86
2023/05/11 09:34:44;;;;;;;3.13;2.58;;;;;;;22.93;36.34;100828.97;4995573;28;20038;-86
2023/05/11 09:37:17;;;;;;;2.80;2.10;;;;;;;23.21;37.22;100824.38;5010083;28;20042;-87
2023/05/11 09:39:43;;;;;;;3.72;2.35;;;;;;;23.70;34.41;100842.44;5016115;28;20152;-87
2023/05/11 09:42:30;;;;;;;2.95;2.35;;;;;;;24.01;32.91;100843.78;5020892;28;20123;-87
2023/05/11 09:44:57;;;;;;;25.83;4.80;;;;;;;23.78;34.62;100829.28;5016375;28;20456;-84
2023/05/11 09:47:24;;;;;;;4.53;2.55;;;;;;;24.00;33.08;100833.97;5032815;28;20491;-88
2023/05/11 09:49:50;;;;;;;12.80;2.83;;;;;;;23.71;31.49;100833.38;5026500;28;20490;-87
2023/05/11 09:52:19;;;;;;;3.45;2.25;;;;;;;23.74;32.28;100828.66;5022518;28;20045;-86
2023/05/11 09:54:49;;;;;;;27.20;5.20;;;;;;;23.42;31.93;100821.97;5026287;28;20051;-85
2023/05/11 09:57:29;;;;;;;3.65;2.60;;;;;;;23.88;31.91;100819.56;5012422;28;20407;-87
2023/05/11 09:59:58;;;;;;;2.90;2.15;;;;;;;24.38;32.24;100826.63;5011427;28;20040;-86
2023/05/11 10:02:29;;;;;;;2.92;2.50;;;;;;;23.87;32.87;100824.06;5004055;28;20398;-87
2023/05/11 10:04:59;;;;;;;4.75;2.53;;;;;;;23.78;33.00;100819.34;5012035;28;20044;-88
2023/05/11 10:07:27;;;;;;;5.10;2.78;;;;;;;22.89;33.32;100823.94;5014040;28;20045;-86
2023/05/11 10:09:55;;;;;;;47.95;7.93;;;;;;;22.43;33.59;100819.81;5000127;28;20486;-83
2023/05/11 10:12:24;;;;;;;4.97;2.58;;;;;;;23.07;34.02;100809.19;5011534;28;20049;-82
2023/05/11 10:14:55;;;;;;;3.33;2.43;;;;;;;22.57;31.54;100818.03;5020704;28;20038;-83
2023/05/11 10:17:24;;;;;;;2.38;2.05;;;;;;;22.79;32.41;100809.34;5009716;28;20091;-84
2023/05/11 10:19:53;;;;;;;6.45;2.13;;;;;;;23.06;31.68;100810.16;5009086;28;20064;-85
2023/05/11 10:22:21;;;;;;;2.42;1.98;;;;;;;22.84;30.96;100804.47;5005181;28;20483;-84
2023/05/11 10:24:49;;;;;;;64.78;7.72;;;;;;;23.46;32.26;100805.50;5000526;28;20128;-82
2023/05/11 10:27:15;;;;;;;25.05;4.20;;;;;;;23.71;31.18;100809.09;5060069;28;20037;-84
2023/05/11 10:29:43;;;;;;;4.90;2.47;;;;;;;24.04;30.77;100811.16;5004884;28;20040;-85
2023/05/11 10:32:10;;;;;;;3.75;2.42;;;;;;;23.66;31.88;100806.75;5004249;28;20387;-84
2023/05/11 10:34:40;;;;;;;2.50;2.28;;;;;;;23.33;31.10;100801.94;5012174;28;20680;-84
2023/05/11 10:37:09;;;;;;;2.88;2.00;;;;;;;22.74;31.68;100801.56;5028748;28;20056;-85
2023/05/11 10:39:37;;;;;;;22.95;3.40;;;;;;;22.45;32.60;100799.06;5017631;28;20537;-83
2023/05/11 10:42:26;;;;;;;2.85;2.00;;;;;;;22.40;32.28;100811.09;5030262;28;20049;-85
2023/05/11 10:45:14;;;;;;;3.20;2.17;;;;;;;22.65;33.31;100795.00;5023946;28;20034;-85
2023/05/11 10:48:07;;;;;;;6.78;2.60;;;;;;;23.25;34.88;100794.38;5019198;28;20037;-86
2023/05/11 10:50:50;;;;;;;7.07;3.00;;;;;;;22.85;34.31;100795.47;5016888;28;20030;-84
2023/05/11 10:53:52;;;;;;;3.83;2.70;;;;;;;22.97;34.02;100800.88;5041539;28;20528;-85
2023/05/11 10:56:26;;;;;;;3.15;2.75;;;;;;;22.93;33.99;100793.09;5022669;28;20088;-86
2023/05/11 10:59:14;;;;;;;5.50;3.42;;;;;;;22.91;34.92;100800.44;5036915;28;20045;-84
2023/05/11 11:01:45;;;;;;;2.60;2.33;;;;;;;23.05;34.63;100786.88;5024286;28;20068;-85
2023/05/11 11:04:13;;;;;;;4.63;2.95;;;;;;;23.67;35.11;100786.91;5024548;28;20498;-85
2023/05/11 11:06:41;;;;;;;3.05;2.58;;;;;;;24.31;35.39;100789.34;5005681;28;20502;-85
2023/05/11 11:09:14;;;;;;;3.58;2.90;;;;;;;24.71;33.03;100782.63;5010500;28;20051;-85
2023/05/11 11:11:46;;;;;;;3.37;3.07;;;;;;;24.75;32.08;100787.81;5014752;28;20075;-85
2023/05/11 11:14:14;;;;;;;3.33;2.80;;;;;;;24.49;33.34;100792.53;5020809;28;20042;-83
2023/05/11 11:17:13;;;;;;;4.55;2.95;;;;;;;24.13;33.29;100795.16;5006884;28;20069;-84
2023/05/11 11:19:41;;;;;;;3.95;2.80;;;;;;;24.05;35.01;100804.81;5028435;28;20045;-84
2023/05/11 11:22:33;;;;;;;6.40;3.13;;;;;;;23.76;34.58;100806.94;5010908;28;20490;-84
2023/05/11 11:25:10;;;;;;;4.32;3.42;;;;;;;23.20;35.92;100815.41;5027552;28;20044;-82
2023/05/11 11:27:39;;;;;;;7.45;3.40;;;;;;;23.28;36.50;100828.34;5024197;28;20061;-85
2023/05/11 11:30:20;;;;;;;4.47;3.20;;;;;;;22.72;36.44;100800.81;5049686;28;20041;-84